createdAt,value
2017-09-30T00:02:21.925Z,25.67
2017-09-30T00:04:50.705Z,24.77
2017-09-30T00:07:19.376Z,22.97
2017-09-30T00:09:47.980Z,24.30
2017-09-30T00:12:16.598Z,24.33
2017-09-30T00:14:45.275Z,27.80
2017-09-30T00:17:13.908Z,28.03
2017-09-30T00:19:42.560Z,21.23
2017-09-30T00:22:11.189Z,24.13
2017-09-30T00:24:39.837Z,26.50
2017-09-30T00:27:23.033Z,30.20
2017-09-30T00:30:06.725Z,24.50
2017-09-30T00:32:49.110Z,28.80
2017-09-30T00:35:31.340Z,22.97
2017-09-30T00:38:03.075Z,26.80
2017-09-30T00:40:34.694Z,26.90
2017-09-30T00:43:06.038Z,29.40
2017-09-30T00:45:37.837Z,23.27
2017-09-30T00:48:09.221Z,23.03
2017-09-30T00:50:40.356Z,25.17
2017-09-30T00:53:11.826Z,25.40
2017-09-30T00:55:41.659Z,23.23
2017-09-30T00:58:11.601Z,25.53
2017-09-30T01:00:41.539Z,27.77
2017-09-30T01:03:10.260Z,24.50
2017-09-30T01:05:38.937Z,27.57
2017-09-30T01:08:07.562Z,26.23
2017-09-30T01:10:36.251Z,31.73
2017-09-30T01:13:04.891Z,27.63
2017-09-30T01:15:33.535Z,30.43
2017-09-30T01:18:02.206Z,25.60
2017-09-30T01:20:30.836Z,25.30
2017-09-30T01:22:59.549Z,24.97
2017-09-30T01:25:27.862Z,25.97
2017-09-30T01:27:56.578Z,24.17
2017-09-30T01:30:24.874Z,31.50
2017-09-30T01:32:53.557Z,24.43
2017-09-30T01:35:22.198Z,30.37
2017-09-30T01:37:50.907Z,26.90
2017-09-30T01:40:19.209Z,24.20
2017-09-30T01:42:47.518Z,27.47
2017-09-30T01:45:16.212Z,25.53
2017-09-30T01:47:44.827Z,25.97
2017-09-30T01:50:13.507Z,28.57
2017-09-30T01:52:41.824Z,24.20
2017-09-30T01:55:10.541Z,20.43
2017-09-30T01:57:39.224Z,26.37
2017-09-30T02:00:07.597Z,28.63
2017-09-30T02:02:35.901Z,31.30
2017-09-30T02:05:04.601Z,31.00
2017-09-30T02:07:33.213Z,37.57
2017-09-30T02:10:01.866Z,37.17
2017-09-30T02:12:30.609Z,22.87
2017-09-30T02:14:59.229Z,25.70
2017-09-30T02:17:27.893Z,27.73
2017-09-30T02:19:56.516Z,34.30
2017-09-30T02:22:24.893Z,29.97
2017-09-30T02:24:53.562Z,31.27
2017-09-30T02:27:22.177Z,31.23
2017-09-30T02:29:50.828Z,30.10
2017-09-30T02:32:19.457Z,26.53
2017-09-30T02:34:48.113Z,29.73
2017-09-30T02:37:16.731Z,22.63
2017-09-30T02:39:45.385Z,27.10
2017-09-30T02:42:14.001Z,30.87
2017-09-30T02:44:42.650Z,30.50
2017-09-30T02:47:11.314Z,31.10
2017-09-30T02:49:39.959Z,25.50
2017-09-30T02:52:08.720Z,24.50
2017-09-30T02:54:37.185Z,27.10
2017-09-30T02:57:05.879Z,25.53
2017-09-30T02:59:34.526Z,33.73
2017-09-30T03:02:03.190Z,22.50
2017-09-30T03:04:31.842Z,28.83
2017-09-30T03:07:00.486Z,24.13
2017-09-30T03:09:29.189Z,31.67
2017-09-30T03:11:57.867Z,23.50
2017-09-30T03:14:26.481Z,29.00
2017-09-30T03:16:55.168Z,32.13
2017-09-30T03:19:23.801Z,26.67
2017-09-30T03:21:52.455Z,26.70
2017-09-30T03:24:21.085Z,33.53
2017-09-30T03:26:49.738Z,26.07
2017-09-30T03:29:18.402Z,34.23
2017-09-30T03:31:47.023Z,34.00
2017-09-30T03:34:15.685Z,28.80
2017-09-30T03:36:44.363Z,34.30
2017-09-30T03:39:12.980Z,29.80
2017-09-30T03:41:41.641Z,24.90
2017-09-30T03:44:10.268Z,31.23
2017-09-30T03:46:38.992Z,28.37
2017-09-30T03:49:07.613Z,30.53
2017-09-30T03:51:36.235Z,32.70
2017-09-30T03:54:04.991Z,24.33
2017-09-30T03:56:33.605Z,29.70
2017-09-30T03:59:02.288Z,28.37
2017-09-30T04:01:30.899Z,28.50
2017-09-30T04:03:59.427Z,32.87
2017-09-30T04:06:28.046Z,29.07
2017-09-30T04:08:56.685Z,30.73
2017-09-30T04:11:29.860Z,26.77
2017-09-30T04:14:09.792Z,24.73
2017-09-30T04:16:41.960Z,30.53
2017-09-30T04:19:11.905Z,32.37
2017-09-30T04:21:40.652Z,30.00
2017-09-30T04:24:10.266Z,33.80
2017-09-30T04:26:38.925Z,33.47
2017-09-30T04:29:07.594Z,29.17
2017-09-30T04:31:36.214Z,24.53
2017-09-30T04:34:04.885Z,31.93
2017-09-30T04:36:33.492Z,29.40
2017-09-30T04:39:02.156Z,25.40
2017-09-30T04:41:30.781Z,23.00
2017-09-30T04:43:59.434Z,25.27
2017-09-30T04:46:27.741Z,22.80
2017-09-30T04:48:56.786Z,22.60
2017-09-30T04:51:25.407Z,28.67
2017-09-30T04:53:54.214Z,24.17
2017-09-30T04:56:22.852Z,30.47
2017-09-30T04:58:51.505Z,26.80
2017-09-30T05:01:20.113Z,30.10
2017-09-30T05:03:48.846Z,26.43
2017-09-30T05:06:17.516Z,38.60
2017-09-30T05:08:46.141Z,28.73
2017-09-30T05:11:14.801Z,26.10
2017-09-30T05:13:43.541Z,23.03
2017-09-30T05:16:12.157Z,28.30
2017-09-30T05:18:40.838Z,27.53
2017-09-30T05:21:09.466Z,21.93
2017-09-30T05:23:38.138Z,24.27
2017-09-30T05:26:06.781Z,27.60
2017-09-30T05:28:38.057Z,29.80
2017-09-30T05:31:06.702Z,26.70
2017-09-30T05:33:35.361Z,33.13
2017-09-30T05:36:04.027Z,30.10
2017-09-30T05:38:34.831Z,27.93
2017-09-30T05:41:06.433Z,25.63
2017-09-30T05:43:35.037Z,28.57
2017-09-30T05:46:04.657Z,30.73
2017-09-30T05:48:38.101Z,31.40
2017-09-30T05:51:06.727Z,27.73
2017-09-30T05:53:35.393Z,23.13
2017-09-30T05:56:04.039Z,24.47
2017-09-30T05:58:45.077Z,31.20
2017-09-30T06:01:13.689Z,29.23
2017-09-30T06:03:42.316Z,32.20
2017-09-30T06:06:10.989Z,25.93
2017-09-30T06:08:43.656Z,26.10
2017-09-30T06:11:27.676Z,24.03
2017-09-30T06:14:06.752Z,29.00
2017-09-30T06:16:47.523Z,27.80
2017-09-30T06:19:28.270Z,31.37
2017-09-30T06:22:10.666Z,24.73
2017-09-30T06:24:50.540Z,25.97
2017-09-30T06:27:27.976Z,38.93
2017-09-30T06:30:05.362Z,26.70
2017-09-30T06:32:49.244Z,31.57
2017-09-30T06:35:29.404Z,24.70
2017-09-30T06:38:05.654Z,28.60
2017-09-30T06:40:44.837Z,34.40
2017-09-30T06:43:28.223Z,23.90
2017-09-30T06:46:06.981Z,30.07
2017-09-30T06:48:37.414Z,30.07
2017-09-30T06:51:20.845Z,28.47
2017-09-30T06:53:58.704Z,32.97
2017-09-30T06:56:37.627Z,27.30
2017-09-30T06:59:26.122Z,37.67
2017-09-30T07:01:59.223Z,34.07
2017-09-30T07:04:27.851Z,30.67
2017-09-30T07:06:56.505Z,29.10
2017-09-30T07:09:28.423Z,29.47
2017-09-30T07:11:57.233Z,25.40
2017-09-30T07:14:25.865Z,29.90
2017-09-30T07:16:55.570Z,27.00
2017-09-30T07:19:24.286Z,25.00
2017-09-30T07:21:54.395Z,28.80
2017-09-30T07:24:23.513Z,33.87
2017-09-30T07:26:55.490Z,26.73
2017-09-30T07:29:24.118Z,29.43
2017-09-30T07:31:52.777Z,28.70
2017-09-30T07:34:21.391Z,30.57
2017-09-30T07:36:55.757Z,36.13
2017-09-30T07:39:31.250Z,30.17
2017-09-30T07:42:11.688Z,31.57
2017-09-30T07:44:44.380Z,30.20
2017-09-30T07:47:21.448Z,32.03
2017-09-30T07:49:54.688Z,28.73
2017-09-30T07:52:37.556Z,25.93
2017-09-30T07:55:18.725Z,32.70
2017-09-30T07:57:52.523Z,28.03
2017-09-30T08:00:26.616Z,33.40
2017-09-30T08:03:07.879Z,45.80
2017-09-30T08:05:48.455Z,31.10
2017-09-30T08:08:24.476Z,25.07
2017-09-30T08:13:45.101Z,36.67
2017-09-30T08:16:21.217Z,25.23
2017-09-30T08:18:55.784Z,32.50
2017-09-30T08:21:33.146Z,29.20
2017-09-30T08:24:10.176Z,31.13
2017-09-30T08:26:41.674Z,41.50
2017-09-30T08:29:20.617Z,29.80
2017-09-30T08:31:59.570Z,35.87
2017-09-30T08:34:38.467Z,32.70
2017-09-30T08:37:15.040Z,35.73
2017-09-30T08:39:49.443Z,34.40
2017-09-30T08:42:26.716Z,29.73
2017-09-30T08:45:05.613Z,25.40
2017-09-30T08:47:41.022Z,39.03
2017-09-30T08:50:18.191Z,30.13
2017-09-30T08:52:52.337Z,25.43
2017-09-30T08:55:21.949Z,27.70
2017-09-30T08:57:53.070Z,33.17
2017-09-30T09:00:23.325Z,33.50
2017-09-30T09:02:55.018Z,26.97
2017-09-30T09:05:25.231Z,34.83
2017-09-30T09:07:57.972Z,26.43
2017-09-30T09:10:30.549Z,31.90
2017-09-30T09:13:02.106Z,33.93
2017-09-30T09:15:33.695Z,28.97
2017-09-30T09:18:10.175Z,38.20
2017-09-30T09:20:44.434Z,29.67
2017-09-30T09:23:16.444Z,34.40
2017-09-30T09:25:48.153Z,30.20
2017-09-30T09:28:20.919Z,30.43
2017-09-30T09:33:28.984Z,29.43
2017-09-30T09:36:02.669Z,28.13
2017-09-30T09:38:38.755Z,34.13
2017-09-30T09:41:14.453Z,29.13
2017-09-30T09:43:46.855Z,31.00
2017-09-30T09:46:19.322Z,29.17
2017-09-30T09:48:49.204Z,30.33
2017-09-30T09:51:21.114Z,27.43
2017-09-30T09:53:53.992Z,29.30
2017-09-30T09:56:25.958Z,36.57
2017-09-30T09:58:57.234Z,29.30
2017-09-30T10:01:30.150Z,32.30
2017-09-30T10:04:02.535Z,26.43
2017-09-30T10:06:35.272Z,33.07
2017-09-30T10:09:09.201Z,27.50
2017-09-30T10:11:41.123Z,29.27
2017-09-30T10:14:18.743Z,29.13
2017-09-30T10:16:55.913Z,26.33
2017-09-30T10:19:28.314Z,29.90
2017-09-30T10:22:01.598Z,37.37
2017-09-30T10:24:33.669Z,31.07
2017-09-30T10:27:14.153Z,30.23
2017-09-30T10:29:52.190Z,25.00
2017-09-30T10:32:25.488Z,25.13
2017-09-30T10:34:57.761Z,27.37
2017-09-30T10:37:31.584Z,27.07
2017-09-30T10:40:05.804Z,27.97
2017-09-30T10:42:38.352Z,31.77
2017-09-30T10:45:11.324Z,26.03
2017-09-30T10:47:47.709Z,26.60
2017-09-30T10:50:20.722Z,26.80
2017-09-30T10:52:55.044Z,28.37
2017-09-30T10:55:28.594Z,28.60
2017-09-30T10:58:16.384Z,33.33
2017-09-30T11:00:48.556Z,25.73
2017-09-30T11:03:23.692Z,26.03
2017-09-30T11:05:56.194Z,22.70
2017-09-30T11:11:19.700Z,33.53
2017-09-30T11:13:54.055Z,30.47
2017-09-30T11:16:33.941Z,28.73
2017-09-30T11:19:06.945Z,34.53
2017-09-30T11:21:43.199Z,26.27
2017-09-30T11:24:17.900Z,29.13
2017-09-30T11:26:48.669Z,29.27
2017-09-30T11:29:25.837Z,24.57
2017-09-30T11:32:00.304Z,27.03
2017-09-30T11:34:33.213Z,27.30
2017-09-30T11:37:05.245Z,27.37
2017-09-30T11:39:38.148Z,22.97
2017-09-30T11:42:11.264Z,24.93
2017-09-30T11:44:44.325Z,25.77
2017-09-30T11:47:16.881Z,30.27
2017-09-30T11:49:51.544Z,24.57
2017-09-30T11:52:23.737Z,27.40
2017-09-30T11:54:56.561Z,26.77
2017-09-30T11:57:30.315Z,27.13
2017-09-30T12:00:01.859Z,27.00
2017-09-30T12:02:36.991Z,24.60
2017-09-30T12:05:09.229Z,30.00
2017-09-30T12:07:45.244Z,28.33
2017-09-30T12:10:17.482Z,26.20
2017-09-30T12:12:57.505Z,26.50
2017-09-30T12:15:33.344Z,25.13
2017-09-30T12:18:07.959Z,26.33
2017-09-30T12:20:42.248Z,25.63
2017-09-30T12:23:17.044Z,32.30
2017-09-30T12:25:46.899Z,41.27
2017-09-30T12:28:19.626Z,28.27
2017-09-30T12:30:51.972Z,25.23
2017-09-30T12:33:29.310Z,23.27
2017-09-30T12:35:59.118Z,25.37
2017-09-30T12:38:30.605Z,26.47
2017-09-30T12:41:07.082Z,29.33
2017-09-30T12:43:41.181Z,25.37
2017-09-30T12:46:17.291Z,33.67
2017-09-30T12:48:53.332Z,25.20
2017-09-30T12:51:30.750Z,28.40
2017-09-30T12:54:00.733Z,23.90
2017-09-30T12:56:33.598Z,27.03
2017-09-30T12:59:06.465Z,30.27
2017-09-30T13:01:43.821Z,29.43
2017-09-30T13:04:21.412Z,27.30
2017-09-30T13:06:53.119Z,26.40
2017-09-30T13:09:26.132Z,25.77
2017-09-30T13:11:56.599Z,27.90
2017-09-30T13:14:32.647Z,26.47
2017-09-30T13:17:07.025Z,23.47
2017-09-30T13:19:40.107Z,40.03
2017-09-30T13:22:14.623Z,31.10
2017-09-30T13:24:48.249Z,35.80
2017-09-30T13:27:20.436Z,28.20
2017-09-30T13:29:53.893Z,24.37
2017-09-30T13:32:35.153Z,26.80
2017-09-30T13:35:11.646Z,26.60
2017-09-30T13:37:44.809Z,24.17
2017-09-30T13:40:17.750Z,26.40
2017-09-30T13:42:48.450Z,23.33
2017-09-30T13:45:23.202Z,27.67
2017-09-30T13:47:54.426Z,27.00
2017-09-30T13:50:30.415Z,26.53
2017-09-30T13:53:05.496Z,35.47
2017-09-30T13:55:39.668Z,24.47
2017-09-30T13:58:12.990Z,35.00
2017-09-30T14:00:44.848Z,33.77
2017-09-30T14:03:17.914Z,28.00
2017-09-30T14:05:50.635Z,29.90
2017-09-30T14:08:23.574Z,28.87
2017-09-30T14:10:55.727Z,25.57
2017-09-30T14:13:27.893Z,25.50
2017-09-30T14:16:02.676Z,26.13
2017-09-30T14:18:40.118Z,26.47
2017-09-30T14:21:13.699Z,29.83
2017-09-30T14:23:46.721Z,26.60
2017-09-30T14:26:18.677Z,29.33
2017-09-30T14:28:50.353Z,26.70
2017-09-30T14:31:26.313Z,26.07
2017-09-30T14:34:02.258Z,28.70
2017-09-30T14:36:39.992Z,29.80
2017-09-30T14:39:14.153Z,27.80
2017-09-30T14:41:49.371Z,44.93
2017-09-30T14:44:20.393Z,28.30
2017-09-30T14:46:54.257Z,26.27
2017-09-30T14:49:28.273Z,27.27
2017-09-30T14:52:05.773Z,24.07
2017-09-30T14:54:40.293Z,26.53
2017-09-30T14:57:14.329Z,26.40
2017-09-30T14:59:47.788Z,28.60
2017-09-30T15:02:20.173Z,30.63
2017-09-30T15:04:55.996Z,28.33
2017-09-30T15:07:33.699Z,27.43
2017-09-30T15:10:08.703Z,24.63
2017-09-30T15:12:40.730Z,30.30
2017-09-30T15:15:13.539Z,27.50
2017-09-30T15:17:44.271Z,26.60
2017-09-30T15:20:19.745Z,27.20
2017-09-30T15:22:54.256Z,26.00
2017-09-30T15:25:27.327Z,26.40
2017-09-30T15:28:01.764Z,25.57
2017-09-30T15:30:39.004Z,25.20
2017-09-30T15:33:14.236Z,25.90
2017-09-30T15:35:47.161Z,31.70
2017-09-30T15:38:21.004Z,27.70
2017-09-30T15:40:53.551Z,25.07
2017-09-30T15:43:27.246Z,32.00
2017-09-30T15:46:00.497Z,25.50
2017-09-30T15:51:10.601Z,30.47
2017-09-30T15:53:42.112Z,37.27
2017-09-30T15:56:15.351Z,22.73
2017-09-30T15:58:47.282Z,25.87
2017-09-30T16:01:19.275Z,24.63
2017-09-30T16:03:52.584Z,27.97
2017-09-30T16:06:22.842Z,28.03
2017-09-30T16:08:56.359Z,23.80
2017-09-30T16:11:27.515Z,23.43
2017-09-30T16:14:01.128Z,33.00
2017-09-30T16:16:36.015Z,26.90
2017-09-30T16:19:08.584Z,25.90
2017-09-30T16:21:43.269Z,27.53
2017-09-30T16:24:13.386Z,29.23
2017-09-30T16:26:45.653Z,22.77
2017-09-30T16:29:19.860Z,24.37
2017-09-30T16:31:50.865Z,20.77
2017-09-30T16:34:23.025Z,23.20
2017-09-30T16:37:03.685Z,27.62
2017-09-30T16:39:37.473Z,21.30
2017-09-30T16:42:09.285Z,31.97
2017-09-30T16:44:41.596Z,26.10
2017-09-30T16:47:14.752Z,22.37
2017-09-30T16:49:50.365Z,20.50
2017-09-30T16:52:20.879Z,26.87
2017-09-30T16:54:54.184Z,21.60
2017-09-30T16:57:27.573Z,28.30
2017-09-30T16:59:59.703Z,25.73
2017-09-30T17:02:32.844Z,26.10
2017-09-30T17:05:04.453Z,30.03
2017-09-30T17:07:37.191Z,26.27
2017-09-30T17:10:10.667Z,23.90
2017-09-30T17:12:46.094Z,23.43
2017-09-30T17:15:19.542Z,25.93
2017-09-30T17:17:53.989Z,24.83
2017-09-30T17:20:25.236Z,23.50
2017-09-30T17:22:59.605Z,23.73
2017-09-30T17:25:35.437Z,29.57
2017-09-30T17:28:10.221Z,22.20
2017-09-30T17:30:46.088Z,27.47
2017-09-30T17:33:21.410Z,24.67
2017-09-30T17:35:51.401Z,24.60
2017-09-30T17:38:26.501Z,20.43
2017-09-30T17:41:04.445Z,24.33
2017-09-30T17:43:37.348Z,21.10
2017-09-30T17:46:09.330Z,23.20
2017-09-30T17:48:41.641Z,26.77
2017-09-30T17:51:13.284Z,26.47
2017-09-30T17:53:44.856Z,23.40
2017-09-30T17:56:19.475Z,22.17
2017-09-30T17:58:51.148Z,24.50
2017-09-30T18:01:24.962Z,23.57
2017-09-30T18:03:56.135Z,22.17
2017-09-30T18:06:29.814Z,27.20
2017-09-30T18:09:03.162Z,28.80
2017-09-30T18:11:35.749Z,30.67
2017-09-30T18:14:08.794Z,24.67
2017-09-30T18:16:42.593Z,20.03
2017-09-30T18:19:15.889Z,21.50
2017-09-30T18:21:50.415Z,21.93
2017-09-30T18:24:25.540Z,19.83
2017-09-30T18:27:06.106Z,20.40
2017-09-30T18:29:39.453Z,19.80
2017-09-30T18:32:11.673Z,22.90
2017-09-30T18:34:47.582Z,20.33
2017-09-30T18:37:25.192Z,19.87
2017-09-30T18:39:58.164Z,22.60
2017-09-30T18:42:30.713Z,16.20
2017-09-30T18:45:01.057Z,16.43
2017-09-30T18:47:32.815Z,15.67
2017-09-30T18:50:06.252Z,16.77
2017-09-30T18:52:44.984Z,15.70
2017-09-30T18:55:25.975Z,14.70
2017-09-30T18:57:59.409Z,17.83
2017-09-30T19:00:34.509Z,22.40
2017-09-30T19:03:11.228Z,16.73
2017-09-30T19:05:44.399Z,15.27
2017-09-30T19:08:20.790Z,14.03
2017-09-30T19:10:53.707Z,16.87
2017-09-30T19:13:24.220Z,17.40
2017-09-30T19:15:55.762Z,21.40
2017-09-30T19:18:28.412Z,18.10
2017-09-30T19:21:02.138Z,16.23
2017-09-30T19:23:33.967Z,18.00
2017-09-30T19:26:10.553Z,15.87
2017-09-30T19:28:45.126Z,13.83
2017-09-30T19:31:20.406Z,15.53
2017-09-30T19:33:56.149Z,19.17
2017-09-30T19:36:29.385Z,12.77
2017-09-30T19:39:02.416Z,18.30
2017-09-30T19:41:36.063Z,32.23
2017-09-30T19:44:09.194Z,18.30
2017-09-30T19:46:42.185Z,20.50
2017-09-30T19:49:17.994Z,18.73
2017-09-30T19:51:50.859Z,13.13
2017-09-30T19:54:34.524Z,11.60
2017-09-30T19:57:10.715Z,16.37
2017-09-30T19:59:42.052Z,15.47
2017-09-30T20:02:16.197Z,13.20
2017-09-30T20:04:48.447Z,15.60
2017-09-30T20:07:22.068Z,17.80
2017-09-30T20:09:54.761Z,13.20
2017-09-30T20:12:28.961Z,22.90
2017-09-30T20:15:01.329Z,16.57
2017-09-30T20:17:36.833Z,22.00
2017-09-30T20:20:10.102Z,21.40
2017-09-30T20:22:42.032Z,12.17
2017-09-30T20:25:13.770Z,14.57
2017-09-30T20:27:45.833Z,13.70
2017-09-30T20:30:20.063Z,20.60
2017-09-30T20:32:49.660Z,14.50
2017-09-30T20:35:21.993Z,18.43
2017-09-30T20:37:57.270Z,16.13
2017-09-30T20:40:32.600Z,18.80
2017-09-30T20:43:04.745Z,19.17
2017-09-30T20:45:39.085Z,21.40
2017-09-30T20:48:12.878Z,21.20
2017-09-30T20:50:45.022Z,14.60
2017-09-30T20:53:21.598Z,18.03
2017-09-30T20:55:55.351Z,15.43
2017-09-30T20:58:28.920Z,13.17
2017-09-30T21:01:01.914Z,14.23
2017-09-30T21:03:35.480Z,21.00
2017-09-30T21:06:04.277Z,16.93
2017-09-30T21:08:40.116Z,15.73
2017-09-30T21:11:16.213Z,20.03
2017-09-30T21:13:48.283Z,17.13
2017-09-30T21:16:21.580Z,14.97
2017-09-30T21:18:54.029Z,15.60
2017-09-30T21:21:28.471Z,18.73
2017-09-30T21:24:00.402Z,17.00
2017-09-30T21:26:35.229Z,11.30
2017-09-30T21:29:11.382Z,10.57
2017-09-30T21:31:44.967Z,7.73
2017-09-30T21:34:21.122Z,5.87
2017-09-30T21:36:52.256Z,4.77
2017-09-30T21:39:26.057Z,3.70
2017-09-30T21:42:00.730Z,3.77
2017-09-30T21:44:32.759Z,3.67
2017-09-30T21:47:06.876Z,6.47
2017-09-30T21:49:39.451Z,3.47
2017-09-30T21:52:14.198Z,4.60
2017-09-30T21:54:47.370Z,5.30
2017-09-30T21:57:19.437Z,3.43
2017-09-30T21:59:51.229Z,2.30
2017-09-30T22:02:25.011Z,2.50
2017-09-30T22:04:58.627Z,6.73
2017-09-30T22:07:30.618Z,3.40
2017-09-30T22:10:03.602Z,4.30
2017-09-30T22:12:35.309Z,4.00
2017-09-30T22:15:09.103Z,5.20
2017-09-30T22:17:43.757Z,2.23
2017-09-30T22:20:18.573Z,2.70
2017-09-30T22:22:55.043Z,11.10
2017-09-30T22:25:28.706Z,3.20
2017-09-30T22:28:00.861Z,2.47
2017-09-30T22:30:33.990Z,1.43
2017-09-30T22:33:07.384Z,2.50
2017-09-30T22:35:53.456Z,1.30
2017-09-30T22:38:36.260Z,7.70
2017-09-30T22:41:20.236Z,3.40
2017-09-30T22:44:03.033Z,1.57
2017-09-30T22:46:53.401Z,4.10
2017-09-30T22:49:30.726Z,7.70
2017-09-30T22:52:14.786Z,7.40
2017-09-30T22:54:59.612Z,7.47
2017-09-30T22:57:59.671Z,7.67
2017-09-30T23:00:32.061Z,3.40
2017-09-30T23:03:18.158Z,4.67
2017-09-30T23:11:08.260Z,2.37
2017-09-30T23:13:41.921Z,4.57
2017-09-30T23:16:19.903Z,2.20
2017-09-30T23:18:55.205Z,5.03
2017-09-30T23:21:28.934Z,4.23
2017-09-30T23:24:00.014Z,4.23
2017-09-30T23:26:32.952Z,3.90
2017-09-30T23:29:04.982Z,4.90
2017-09-30T23:31:39.739Z,1.80
2017-09-30T23:34:19.003Z,4.83
2017-09-30T23:36:57.549Z,4.90
2017-09-30T23:39:34.293Z,1.93
2017-09-30T23:42:08.004Z,5.20
2017-09-30T23:44:55.547Z,2.77
2017-09-30T23:47:29.545Z,1.80
2017-09-30T23:50:08.350Z,1.60
2017-09-30T23:52:43.918Z,5.13
2017-09-30T23:55:20.094Z,4.40
2017-09-30T23:57:51.339Z,2.10
